Observations for VALLEY RAF, United Kingdom (EGOV)

EGOV 211650Z AUTO 21016KT 7000 BR FEW004/// BKN038/// 10/09 Q1001   
EGOV 211550Z AUTO 21014KT 5000 BR BKN003/// BKN060/// 09/09 Q1001   
EGOV 211450Z AUTO 20014KT 4700 BR OVC003/// 09/09 Q1002 RERA
EGOV 211350Z AUTO 18016KT 4200 RA OVC004/// 09/09 Q1002 
EGOV 211250Z AUTO 17019KT 9999 BKN006/// 08/08 Q1003 RERA   
EGOV 211150Z AUTO 17021KT 8000 -DZ BKN007/// 08/07 Q1004
EGOV 211050Z AUTO 15012KT 9999 -RA BKN013/// BKN023/// 07/06 Q1005  
EGOV 210950Z AUTO 10005KT 9999 -RA OVC014/// 04/03 Q1006
EGOV 210850Z AUTO 08006KT 9999 RA BKN013/// BKN025/// 03/03 Q1007   
EGOV 210750Z AUTO 11007KT 9999 RA BKN025/// 03/02 Q1007 
EGOV 210650Z AUTO 10009KT 9999 RA FEW023/// BKN031/// 03/02 Q1009   
EGOV 210550Z AUTO 10006KT 7000 RA FEW013/// BKN021/// 03/02 Q1010   
EGOV 210450Z AUTO 12008KT 9999 -RA FEW029/// BKN036/// 03/02 Q1011  
EGOV 210350Z AUTO 11006KT 9999 -RA FEW022/// BKN034/// 03/02 Q1011  
EGOV 210250Z AUTO 13007KT 9999 -RA FEW025/// BKN030/// 03/02 Q1012  
EGOV 210150Z AUTO 13005KT 9999 OVC041/// 02/01 Q1011
EGOV 210050Z AUTO 10004KT 9999 OVC070/// 01/01 Q1011
EGOV 202350Z AUTO 12002KT 9000 BR OVC100/// 01/01 Q1011 
EGOV 202250Z AUTO 14004KT 6000 BR BKN130/// 01/01 Q1011 
EGOV 202150Z AUTO 09002KT 9999 NCD M00/M01 Q1010
EGOV 202050Z AUTO 08005KT 9999 NCD 01/01 Q1009  
EGOV 201950Z AUTO 02002KT 9999 NCD 01/01 Q1008  
EGOV 201850Z AUTO 36006KT 9999 FEW050/// 02/01 Q1007
EGOV 201750Z AUTO 36006KT 9999 BKN048/// 03/02 Q1005
EGOV 201650Z AUTO 03010KT 9999 BKN014/// 04/02 Q1004